createdAt,value
2023-09-27T00:00:58.670Z,8.42
2023-09-27T00:03:25.093Z,8.22
2023-09-27T00:05:51.600Z,8.25
2023-09-27T00:08:18.095Z,8.15
2023-09-27T00:10:44.502Z,8.13
2023-09-27T00:13:11.131Z,7.51
2023-09-27T00:15:37.506Z,7.33
2023-09-27T00:18:03.943Z,7.42
2023-09-27T00:20:30.352Z,7.74
2023-09-27T00:22:56.822Z,7.91
2023-09-27T00:25:23.224Z,7.46
2023-09-27T00:27:49.761Z,7.44
2023-09-27T00:30:16.176Z,7.15
2023-09-27T00:32:42.894Z,7.27
2023-09-27T00:35:09.382Z,7.57
2023-09-27T00:37:35.825Z,7.87
2023-09-27T00:40:02.212Z,7.52
2023-09-27T00:42:28.587Z,7.34
2023-09-27T00:44:55.021Z,7.30
2023-09-27T00:47:21.429Z,7.12
2023-09-27T00:49:47.876Z,7.26
2023-09-27T00:52:14.259Z,6.77
2023-09-27T00:54:40.673Z,6.99
2023-09-27T00:57:07.050Z,7.32
2023-09-27T00:59:33.510Z,7.54
2023-09-27T01:02:00.027Z,7.17
2023-09-27T01:04:26.471Z,6.88
2023-09-27T01:06:52.852Z,6.76
2023-09-27T01:09:19.243Z,7.08
2023-09-27T01:11:45.642Z,7.46
2023-09-27T01:14:12.074Z,7.11
2023-09-27T01:16:38.485Z,7.42
2023-09-27T01:19:04.891Z,7.75
2023-09-27T01:21:31.273Z,7.58
2023-09-27T01:23:57.666Z,7.31
2023-09-27T01:26:24.214Z,7.40
2023-09-27T01:28:50.655Z,7.41
2023-09-27T01:31:17.234Z,8.12
2023-09-27T01:33:43.636Z,7.91
2023-09-27T01:36:10.031Z,7.95
2023-09-27T01:38:36.480Z,7.94
2023-09-27T01:41:02.957Z,7.90
2023-09-27T01:43:29.364Z,8.14
2023-09-27T01:45:55.765Z,7.67
2023-09-27T01:48:22.216Z,7.86
2023-09-27T01:50:48.678Z,7.86
2023-09-27T01:53:15.073Z,8.36
2023-09-27T01:55:41.479Z,8.18
2023-09-27T01:58:07.858Z,8.03
2023-09-27T02:00:34.236Z,8.04
2023-09-27T02:03:00.786Z,7.67
2023-09-27T02:05:27.385Z,7.37
2023-09-27T02:07:53.879Z,7.57
2023-09-27T02:10:20.301Z,8.20
2023-09-27T02:12:46.729Z,7.92
2023-09-27T02:15:13.113Z,7.66
2023-09-27T02:17:39.524Z,7.46
2023-09-27T02:20:05.930Z,7.61
2023-09-27T02:22:32.371Z,8.63
2023-09-27T02:24:58.757Z,8.60
2023-09-27T02:27:25.152Z,8.14
2023-09-27T02:29:51.520Z,8.25
2023-09-27T02:32:17.943Z,7.92
2023-09-27T02:34:44.386Z,8.03
2023-09-27T02:37:10.801Z,7.43
2023-09-27T02:39:37.235Z,6.94
2023-09-27T02:42:03.622Z,6.98
2023-09-27T02:44:30.068Z,6.70
2023-09-27T02:46:56.581Z,6.42
2023-09-27T02:49:23.034Z,6.59
2023-09-27T02:51:49.466Z,6.93
2023-09-27T02:54:15.855Z,6.80
2023-09-27T02:56:42.279Z,7.05
2023-09-27T02:59:08.702Z,7.41
2023-09-27T03:01:35.153Z,7.41
2023-09-27T03:04:01.670Z,7.26
2023-09-27T03:06:28.085Z,7.50
2023-09-27T03:08:54.549Z,7.62
2023-09-27T03:11:21.255Z,7.49
2023-09-27T03:13:47.653Z,8.26
2023-09-27T03:16:14.085Z,8.27
2023-09-27T03:18:40.511Z,8.70
2023-09-27T03:21:06.889Z,8.50
2023-09-27T03:23:33.314Z,8.28
2023-09-27T03:25:59.855Z,7.59
2023-09-27T03:28:26.245Z,8.04
2023-09-27T03:30:52.616Z,8.63
2023-09-27T03:33:19.051Z,8.17
2023-09-27T03:35:45.469Z,8.87
2023-09-27T03:38:11.853Z,8.95
2023-09-27T03:40:38.288Z,9.12
2023-09-27T03:43:04.771Z,8.65
2023-09-27T03:45:31.154Z,8.81
2023-09-27T03:47:57.601Z,9.33
2023-09-27T03:50:24.090Z,9.13
2023-09-27T03:52:50.529Z,8.49
2023-09-27T03:55:16.938Z,8.25
2023-09-27T03:57:43.378Z,8.03
2023-09-27T04:00:09.762Z,8.03
2023-09-27T04:02:36.210Z,8.20
2023-09-27T04:05:02.666Z,8.27
2023-09-27T04:07:29.084Z,8.09
2023-09-27T04:09:55.457Z,7.61
2023-09-27T04:12:21.831Z,7.71
2023-09-27T04:14:48.206Z,7.82
2023-09-27T04:17:14.651Z,7.56
2023-09-27T04:19:41.084Z,7.68
2023-09-27T04:22:07.519Z,7.57
2023-09-27T04:24:33.912Z,8.08
2023-09-27T04:27:00.292Z,8.49
2023-09-27T04:29:26.673Z,7.74
2023-09-27T04:31:53.091Z,8.16
2023-09-27T04:34:19.503Z,8.06
2023-09-27T04:36:45.893Z,8.36
2023-09-27T04:39:12.289Z,8.43
2023-09-27T04:41:38.692Z,8.55
2023-09-27T04:44:05.102Z,8.09
2023-09-27T04:46:31.497Z,7.95
2023-09-27T04:48:57.864Z,7.89
2023-09-27T04:51:24.261Z,8.35
2023-09-27T04:53:50.656Z,8.27
2023-09-27T04:56:17.065Z,7.68
2023-09-27T04:58:43.538Z,7.85
2023-09-27T05:01:09.952Z,8.15
2023-09-27T05:03:36.441Z,8.05
2023-09-27T05:06:02.890Z,8.45
2023-09-27T05:08:29.347Z,9.11
2023-09-27T05:10:55.802Z,8.37
2023-09-27T05:13:22.244Z,8.34
2023-09-27T05:15:48.630Z,8.27
2023-09-27T05:18:15.071Z,7.86
2023-09-27T05:20:41.550Z,7.98
2023-09-27T05:23:07.989Z,8.51
2023-09-27T05:25:34.444Z,8.50
2023-09-27T05:28:00.831Z,8.31
2023-09-27T05:30:27.207Z,7.82
2023-09-27T05:32:53.667Z,7.67
2023-09-27T05:35:20.112Z,7.90
2023-09-27T05:37:46.597Z,7.47
2023-09-27T05:40:13.006Z,7.72
2023-09-27T05:42:39.432Z,7.60
2023-09-27T05:45:05.858Z,7.95
2023-09-27T05:47:32.343Z,7.42
2023-09-27T05:49:58.902Z,7.65
2023-09-27T05:52:25.323Z,8.29
2023-09-27T05:54:51.700Z,7.72
2023-09-27T05:57:18.066Z,7.91
2023-09-27T05:59:44.568Z,7.69
2023-09-27T06:02:10.948Z,7.75
2023-09-27T06:04:37.364Z,7.56
2023-09-27T06:07:03.752Z,8.30
2023-09-27T06:09:30.139Z,9.10
2023-09-27T06:11:56.564Z,8.37
2023-09-27T06:14:23.000Z,9.58
2023-09-27T06:16:49.614Z,10.12
2023-09-27T06:19:15.997Z,10.90
2023-09-27T06:21:42.403Z,10.97
2023-09-27T06:24:08.795Z,11.03
2023-09-27T06:26:35.204Z,10.57
2023-09-27T06:29:01.885Z,10.08
2023-09-27T06:31:28.894Z,8.30
2023-09-27T06:33:55.404Z,9.24
2023-09-27T06:36:21.786Z,9.50
2023-09-27T06:38:48.317Z,9.66
2023-09-27T06:41:14.804Z,9.18
2023-09-27T06:43:41.216Z,8.97
2023-09-27T06:46:07.698Z,8.93
2023-09-27T06:48:34.141Z,9.77
2023-09-27T06:51:00.546Z,9.51
2023-09-27T06:53:31.310Z,9.90
2023-09-27T06:55:59.915Z,10.14
2023-09-27T06:58:26.463Z,10.90
2023-09-27T07:00:52.967Z,9.99
2023-09-27T07:03:19.539Z,9.11
2023-09-27T07:05:45.989Z,9.83
2023-09-27T07:08:12.455Z,9.60
2023-09-27T07:10:38.884Z,10.70
2023-09-27T07:13:05.246Z,10.72
2023-09-27T07:15:31.619Z,11.27
2023-09-27T07:17:58.088Z,11.08
2023-09-27T07:20:24.710Z,11.20
2023-09-27T07:22:51.243Z,10.99
2023-09-27T07:25:17.641Z,11.62
2023-09-27T07:27:44.042Z,11.56
2023-09-27T07:30:10.439Z,11.98
2023-09-27T07:32:36.913Z,11.59
2023-09-27T07:35:03.391Z,11.33
2023-09-27T07:37:29.777Z,11.60
2023-09-27T07:39:56.191Z,10.52
2023-09-27T07:42:22.598Z,10.64
2023-09-27T07:44:48.969Z,11.10
2023-09-27T07:47:15.396Z,10.64
2023-09-27T07:49:41.963Z,10.77
2023-09-27T07:52:08.364Z,11.55
2023-09-27T07:54:34.819Z,11.45
2023-09-27T07:57:01.226Z,11.21
2023-09-27T07:59:27.639Z,10.83
2023-09-27T08:01:54.023Z,11.26
2023-09-27T08:04:20.492Z,11.12
2023-09-27T08:06:46.979Z,11.48
2023-09-27T08:09:23.960Z,11.17
2023-09-27T08:11:59.700Z,11.14
2023-09-27T08:14:26.106Z,11.15
2023-09-27T08:16:53.716Z,10.82
2023-09-27T08:19:20.136Z,11.14
2023-09-27T08:21:46.510Z,11.29
2023-09-27T08:24:12.904Z,11.36
2023-09-27T08:26:39.305Z,10.79
2023-09-27T08:29:05.709Z,10.45
2023-09-27T08:31:32.106Z,10.95
2023-09-27T08:33:58.525Z,10.75
2023-09-27T08:36:24.910Z,10.66
2023-09-27T08:38:51.377Z,10.55
2023-09-27T08:41:17.836Z,10.22
2023-09-27T08:43:44.263Z,10.33
2023-09-27T08:46:10.664Z,10.15
2023-09-27T08:48:37.109Z,10.41
2023-09-27T08:51:03.518Z,10.59
2023-09-27T08:53:29.929Z,10.49
2023-09-27T08:55:56.341Z,10.38
2023-09-27T08:58:22.707Z,10.70
2023-09-27T09:00:49.096Z,10.45
2023-09-27T09:03:15.625Z,11.05
2023-09-27T09:05:42.247Z,11.36
2023-09-27T09:08:08.748Z,11.29
2023-09-27T09:10:35.153Z,11.40
2023-09-27T09:13:01.642Z,11.55
2023-09-27T09:15:28.077Z,11.32
2023-09-27T09:17:54.569Z,11.22
2023-09-27T09:20:21.098Z,10.97
2023-09-27T09:22:47.505Z,11.08
2023-09-27T09:25:13.881Z,11.19
2023-09-27T09:27:41.722Z,10.93
2023-09-27T09:30:09.232Z,11.53
2023-09-27T09:32:35.665Z,11.56
2023-09-27T09:35:02.135Z,11.43
2023-09-27T09:37:28.516Z,10.79
2023-09-27T09:39:54.900Z,10.56
2023-09-27T09:42:21.284Z,10.45
2023-09-27T09:44:47.668Z,10.12
2023-09-27T09:47:14.060Z,10.24
2023-09-27T09:49:40.461Z,10.63
2023-09-27T09:52:06.847Z,10.21
2023-09-27T09:54:33.332Z,10.15
2023-09-27T09:57:09.132Z,10.52
2023-09-27T09:59:40.394Z,10.07
2023-09-27T10:02:06.820Z,11.09
2023-09-27T10:04:33.953Z,10.60
2023-09-27T10:07:01.513Z,10.58
2023-09-27T10:09:27.894Z,10.23
2023-09-27T10:11:54.402Z,10.64
2023-09-27T10:14:20.832Z,10.65
2023-09-27T10:16:47.353Z,10.88
2023-09-27T10:19:13.737Z,11.13
2023-09-27T10:21:40.121Z,11.44
2023-09-27T10:24:06.506Z,10.51
2023-09-27T10:26:32.985Z,10.73
2023-09-27T10:28:59.452Z,10.18
2023-09-27T10:31:25.916Z,9.94
2023-09-27T10:33:52.519Z,10.16
2023-09-27T10:36:19.066Z,9.61
2023-09-27T10:38:45.451Z,9.70
2023-09-27T10:41:11.970Z,9.84
2023-09-27T10:43:38.392Z,9.20
2023-09-27T10:46:04.770Z,9.55
2023-09-27T10:48:31.200Z,8.96
2023-09-27T10:50:57.589Z,7.94
2023-09-27T10:53:24.006Z,8.78
2023-09-27T10:55:50.405Z,8.14
2023-09-27T10:58:16.800Z,7.06
2023-09-27T11:00:43.184Z,7.08
2023-09-27T11:03:09.678Z,6.51
2023-09-27T11:05:36.151Z,6.63
2023-09-27T11:08:02.559Z,6.45
2023-09-27T11:10:28.940Z,6.14
2023-09-27T11:12:55.317Z,5.99
2023-09-27T11:15:21.705Z,6.04
2023-09-27T11:17:48.260Z,6.13
2023-09-27T11:20:14.770Z,6.03
2023-09-27T11:22:41.177Z,6.05
2023-09-27T11:25:07.569Z,6.11
2023-09-27T11:27:33.958Z,6.44
2023-09-27T11:30:00.367Z,6.18
2023-09-27T11:32:26.749Z,6.02
2023-09-27T11:34:53.110Z,5.95
2023-09-27T11:37:19.480Z,6.15
2023-09-27T11:39:45.866Z,5.91
2023-09-27T11:42:12.242Z,6.18
2023-09-27T11:44:38.743Z,5.83
2023-09-27T11:47:05.234Z,5.80
2023-09-27T11:49:31.606Z,6.07
2023-09-27T11:52:00.859Z,5.95
2023-09-27T11:54:27.825Z,6.01
2023-09-27T11:56:54.264Z,5.69
2023-09-27T11:59:20.726Z,5.74
2023-09-27T12:01:47.129Z,5.41
2023-09-27T12:04:13.723Z,5.71
2023-09-27T12:06:40.456Z,5.71
2023-09-27T12:09:07.070Z,5.82
2023-09-27T12:11:33.528Z,5.67
2023-09-27T12:13:59.967Z,5.86
2023-09-27T12:16:26.360Z,5.78
2023-09-27T12:18:52.815Z,5.97
2023-09-27T12:21:19.343Z,6.00
2023-09-27T12:23:45.897Z,5.91
2023-09-27T12:26:12.361Z,5.62
2023-09-27T12:28:38.758Z,5.38
2023-09-27T12:31:05.173Z,5.71
2023-09-27T12:33:31.665Z,5.70
2023-09-27T12:35:58.216Z,5.74
2023-09-27T12:38:24.628Z,5.91
2023-09-27T12:40:51.013Z,5.78
2023-09-27T12:43:17.386Z,5.56
2023-09-27T12:45:44.148Z,5.56
2023-09-27T12:48:10.713Z,5.55
2023-09-27T12:50:37.188Z,5.64
2023-09-27T12:53:03.612Z,5.79
2023-09-27T12:55:29.984Z,5.53
2023-09-27T12:57:56.485Z,5.44
2023-09-27T13:00:22.923Z,5.81
2023-09-27T13:02:49.462Z,5.52
2023-09-27T13:05:16.003Z,5.84
2023-09-27T13:07:42.494Z,5.43
2023-09-27T13:10:08.912Z,5.33
2023-09-27T13:12:35.293Z,5.47
2023-09-27T13:15:01.677Z,5.53
2023-09-27T13:17:28.153Z,5.32
2023-09-27T13:19:54.618Z,5.41
2023-09-27T13:22:21.024Z,5.42
2023-09-27T13:24:47.421Z,5.55
2023-09-27T13:27:13.830Z,5.72
2023-09-27T13:29:40.262Z,5.73
2023-09-27T13:32:06.718Z,7.11
2023-09-27T13:34:33.996Z,8.63
2023-09-27T13:37:00.445Z,6.63
2023-09-27T13:39:26.955Z,5.90
2023-09-27T13:41:53.529Z,5.13
2023-09-27T13:44:20.045Z,4.96
2023-09-27T13:46:46.512Z,4.95
2023-09-27T13:49:12.938Z,5.06
2023-09-27T13:51:39.432Z,5.20
2023-09-27T13:54:05.822Z,5.10
2023-09-27T13:56:32.233Z,5.02
2023-09-27T13:58:58.669Z,4.63
2023-09-27T14:01:25.115Z,4.98
2023-09-27T14:03:51.612Z,4.61
2023-09-27T14:06:18.176Z,5.04
2023-09-27T14:08:44.710Z,4.90
2023-09-27T14:11:11.155Z,4.79
2023-09-27T14:13:37.533Z,4.63
2023-09-27T14:16:03.972Z,4.75
2023-09-27T14:18:30.479Z,4.76
2023-09-27T14:20:57.034Z,4.45
2023-09-27T14:23:23.529Z,4.57
2023-09-27T14:25:49.937Z,4.94
2023-09-27T14:28:16.309Z,4.67
2023-09-27T14:30:42.686Z,4.49
2023-09-27T14:33:09.104Z,4.92
2023-09-27T14:35:51.840Z,4.96
2023-09-27T14:38:19.128Z,4.81
2023-09-27T14:40:45.510Z,4.94
2023-09-27T14:43:11.900Z,4.64
2023-09-27T14:45:38.305Z,4.73
2023-09-27T14:48:04.722Z,4.79
2023-09-27T14:50:31.148Z,4.74
2023-09-27T14:52:57.605Z,5.07
2023-09-27T14:55:24.040Z,4.77
2023-09-27T14:57:50.455Z,4.86
2023-09-27T15:00:16.839Z,4.48
2023-09-27T15:02:43.341Z,4.35
2023-09-27T15:05:09.824Z,4.27
2023-09-27T15:07:36.273Z,4.58
2023-09-27T15:10:02.670Z,4.55
2023-09-27T15:12:31.209Z,4.02
2023-09-27T15:14:57.575Z,4.23
2023-09-27T15:17:23.939Z,4.26
2023-09-27T15:19:50.552Z,4.20
2023-09-27T15:22:16.980Z,4.02
2023-09-27T15:24:43.352Z,4.32
2023-09-27T15:27:09.748Z,4.96
2023-09-27T15:29:36.142Z,5.27
2023-09-27T15:32:02.698Z,5.23
2023-09-27T15:34:29.190Z,5.60
2023-09-27T15:36:55.637Z,5.82
2023-09-27T15:39:22.020Z,5.86
2023-09-27T15:41:48.453Z,5.84
2023-09-27T15:44:14.841Z,5.37
2023-09-27T15:46:41.280Z,5.63
2023-09-27T15:49:07.683Z,5.71
2023-09-27T15:51:34.058Z,6.33
2023-09-27T15:54:15.412Z,6.27
2023-09-27T15:56:44.751Z,5.96
2023-09-27T15:59:11.218Z,6.09
2023-09-27T16:01:37.807Z,6.69
2023-09-27T16:04:04.311Z,6.56
2023-09-27T16:06:30.741Z,6.66
2023-09-27T16:08:57.134Z,7.30
2023-09-27T16:11:23.606Z,6.78
2023-09-27T16:13:50.059Z,6.56
2023-09-27T16:16:16.519Z,7.32
2023-09-27T16:18:42.936Z,6.78
2023-09-27T16:21:09.353Z,6.48
2023-09-27T16:23:35.858Z,6.89
2023-09-27T16:26:02.457Z,7.04
2023-09-27T16:28:28.980Z,6.60
2023-09-27T16:30:55.877Z,6.51
2023-09-27T16:33:22.476Z,6.85
2023-09-27T16:35:48.960Z,6.98
2023-09-27T16:38:15.335Z,6.84
2023-09-27T16:40:41.780Z,6.97
2023-09-27T16:43:08.210Z,7.43
2023-09-27T16:45:34.628Z,7.84
2023-09-27T16:48:01.157Z,8.25
2023-09-27T16:50:27.556Z,9.00
2023-09-27T16:52:53.931Z,10.53
2023-09-27T16:55:20.378Z,11.37
2023-09-27T16:57:46.767Z,12.63
2023-09-27T17:00:13.198Z,12.34
2023-09-27T17:02:39.709Z,11.53
2023-09-27T17:05:06.321Z,11.37
2023-09-27T17:07:32.778Z,11.33
2023-09-27T17:09:59.149Z,11.05
2023-09-27T17:12:25.529Z,11.22
2023-09-27T17:14:51.930Z,11.35
2023-09-27T17:17:18.314Z,10.25
2023-09-27T17:19:44.734Z,9.68
2023-09-27T17:22:11.302Z,9.00
2023-09-27T17:24:37.696Z,8.58
2023-09-27T17:27:04.080Z,7.98
2023-09-27T17:29:30.452Z,7.40
2023-09-27T17:31:56.947Z,6.84
2023-09-27T17:34:23.472Z,6.83
2023-09-27T17:36:49.885Z,6.84
2023-09-27T17:39:16.311Z,6.88
2023-09-27T17:41:42.719Z,6.77
2023-09-27T17:44:09.162Z,6.87
2023-09-27T17:46:35.607Z,6.46
2023-09-27T17:49:01.999Z,6.42
2023-09-27T17:51:28.389Z,6.69
2023-09-27T17:53:54.943Z,5.93
2023-09-27T17:56:21.596Z,6.32
2023-09-27T17:58:48.036Z,6.02
2023-09-27T18:01:14.489Z,6.05
2023-09-27T18:03:40.998Z,6.38
2023-09-27T18:06:07.465Z,6.23
2023-09-27T18:08:33.886Z,6.36
2023-09-27T18:11:00.289Z,6.88
2023-09-27T18:13:26.735Z,7.09
2023-09-27T18:15:53.187Z,7.47
2023-09-27T18:18:19.640Z,7.64
2023-09-27T18:20:46.032Z,7.84
2023-09-27T18:23:12.519Z,7.26
2023-09-27T18:25:38.934Z,6.99
2023-09-27T18:28:05.363Z,7.24
2023-09-27T18:30:31.747Z,7.01
2023-09-27T18:32:58.154Z,7.11
2023-09-27T18:35:24.545Z,6.88
2023-09-27T18:37:50.990Z,6.65
2023-09-27T18:40:17.403Z,6.76
2023-09-27T18:42:43.777Z,6.60
2023-09-27T18:45:10.150Z,6.35
2023-09-27T18:47:36.633Z,6.44
2023-09-27T18:50:03.171Z,6.40
2023-09-27T18:52:29.626Z,6.70
2023-09-27T18:54:56.035Z,6.67
2023-09-27T18:57:22.448Z,6.78
2023-09-27T18:59:48.823Z,6.55
2023-09-27T19:02:15.230Z,6.48
2023-09-27T19:04:41.742Z,6.68
2023-09-27T19:07:08.143Z,6.60
2023-09-27T19:09:34.541Z,6.39
2023-09-27T19:12:00.932Z,6.77
2023-09-27T19:14:27.308Z,6.22
2023-09-27T19:16:53.741Z,6.25
2023-09-27T19:19:20.167Z,5.95
2023-09-27T19:21:46.566Z,6.21
2023-09-27T19:24:12.930Z,6.13
2023-09-27T19:26:39.300Z,5.99
2023-09-27T19:29:05.712Z,5.82
2023-09-27T19:31:32.197Z,5.68
2023-09-27T19:33:58.617Z,5.81
2023-09-27T19:36:24.992Z,5.78
2023-09-27T19:38:51.415Z,5.98
2023-09-27T19:41:17.796Z,5.92
2023-09-27T19:43:44.199Z,5.81
2023-09-27T19:46:10.661Z,6.11
2023-09-27T19:48:37.111Z,5.97
2023-09-27T19:51:03.486Z,6.14
2023-09-27T19:53:29.850Z,5.98
2023-09-27T19:55:56.237Z,6.09
2023-09-27T19:58:22.636Z,5.65
2023-09-27T20:00:49.015Z,5.98
2023-09-27T20:03:15.444Z,6.14
2023-09-27T20:05:41.904Z,6.23
2023-09-27T20:08:08.301Z,5.89
2023-09-27T20:10:34.720Z,5.82
2023-09-27T20:13:01.131Z,5.65
2023-09-27T20:15:27.518Z,5.89
2023-09-27T20:17:53.915Z,5.82
2023-09-27T20:20:20.359Z,6.06
2023-09-27T20:22:46.770Z,5.85
2023-09-27T20:25:13.140Z,5.67
2023-09-27T20:27:39.612Z,5.99
2023-09-27T20:30:06.006Z,5.83
2023-09-27T20:32:32.429Z,6.06
2023-09-27T20:34:58.973Z,5.93
2023-09-27T20:37:25.492Z,5.49
2023-09-27T20:39:51.867Z,5.51
2023-09-27T20:42:18.254Z,5.51
2023-09-27T20:44:44.627Z,5.72
2023-09-27T20:47:11.043Z,5.75
2023-09-27T20:49:37.485Z,5.85
2023-09-27T20:52:03.924Z,6.09
2023-09-27T20:54:30.313Z,6.25
2023-09-27T20:56:56.747Z,5.86
2023-09-27T20:59:23.172Z,5.73
2023-09-27T21:01:49.649Z,6.02
2023-09-27T21:04:16.080Z,5.88
2023-09-27T21:06:42.483Z,5.88
2023-09-27T21:09:08.867Z,6.33
2023-09-27T21:11:35.230Z,6.31
2023-09-27T21:14:01.785Z,5.90
2023-09-27T21:16:28.256Z,6.10
2023-09-27T21:18:54.681Z,5.78
2023-09-27T21:21:21.074Z,5.87
2023-09-27T21:23:47.493Z,5.72
2023-09-27T21:26:13.884Z,5.57
2023-09-27T21:28:40.279Z,5.46
2023-09-27T21:31:06.701Z,5.92
2023-09-27T21:33:33.091Z,5.95
2023-09-27T21:35:59.468Z,6.03
2023-09-27T21:38:25.858Z,5.71
2023-09-27T21:40:52.268Z,6.41
2023-09-27T21:43:18.671Z,6.22
2023-09-27T21:45:45.124Z,5.83
2023-09-27T21:48:11.532Z,6.01
2023-09-27T21:50:37.936Z,6.10
2023-09-27T21:53:04.341Z,5.92
2023-09-27T21:55:30.852Z,6.11
2023-09-27T21:57:57.294Z,6.00
2023-09-27T22:00:23.671Z,5.88
2023-09-27T22:02:50.121Z,5.92
2023-09-27T22:05:16.662Z,6.18
2023-09-27T22:07:43.061Z,5.87
2023-09-27T22:10:09.453Z,6.08
2023-09-27T22:12:35.846Z,5.83
2023-09-27T22:15:02.231Z,6.25
2023-09-27T22:17:28.668Z,6.31
2023-09-27T22:19:55.128Z,6.09
2023-09-27T22:22:21.551Z,6.20
2023-09-27T22:24:47.969Z,6.34
2023-09-27T22:27:14.357Z,5.95
2023-09-27T22:29:40.780Z,6.04
2023-09-27T22:32:07.188Z,6.34
2023-09-27T22:34:33.590Z,6.08
2023-09-27T22:37:00.005Z,6.32
2023-09-27T22:39:26.394Z,6.46
2023-09-27T22:41:52.783Z,6.24
2023-09-27T22:44:19.237Z,6.36
2023-09-27T22:46:45.651Z,6.52
2023-09-27T22:49:12.060Z,6.51
2023-09-27T22:51:38.440Z,6.40
2023-09-27T22:54:04.836Z,6.46
2023-09-27T22:56:31.214Z,6.74
2023-09-27T22:58:57.643Z,7.05
2023-09-27T23:01:24.230Z,7.16
2023-09-27T23:03:50.663Z,7.12
2023-09-27T23:06:17.104Z,6.87
2023-09-27T23:08:43.466Z,7.11
2023-09-27T23:11:09.948Z,7.45
2023-09-27T23:13:36.610Z,7.15
2023-09-27T23:16:03.047Z,7.05
2023-09-27T23:18:29.459Z,7.21
2023-09-27T23:20:55.828Z,6.99
2023-09-27T23:23:22.199Z,7.31
2023-09-27T23:25:48.571Z,6.90
2023-09-27T23:28:15.041Z,7.17
2023-09-27T23:30:41.410Z,6.78
2023-09-27T23:33:07.827Z,6.63
2023-09-27T23:35:34.224Z,6.75
2023-09-27T23:38:00.633Z,6.56
2023-09-27T23:40:27.089Z,6.67
2023-09-27T23:42:53.467Z,6.73
2023-09-27T23:45:19.835Z,7.06
2023-09-27T23:47:46.365Z,6.45
2023-09-27T23:50:12.843Z,6.73
2023-09-27T23:52:39.284Z,6.84
2023-09-27T23:55:05.684Z,6.59
2023-09-27T23:57:32.066Z,6.47
2023-09-27T23:59:58.451Z,6.08
